sensor_id;sensor_type;location;lat;lon;timestamp;P1;durP1;ratioP1;P2;durP2;ratioP2
76708;SDS011;74360;44.410;0.216;2024-02-15T00:01:57;10.60;;;3.37;;
76708;SDS011;74360;44.410;0.216;2024-02-15T00:07:29;7.70;;;3.43;;
76708;SDS011;74360;44.410;0.216;2024-02-15T00:13:02;7.40;;;3.20;;
76708;SDS011;74360;44.410;0.216;2024-02-15T00:18:34;8.53;;;3.10;;
76708;SDS011;74360;44.410;0.216;2024-02-15T00:24:07;7.23;;;3.03;;
76708;SDS011;74360;44.410;0.216;2024-02-15T00:35:10;6.63;;;2.63;;
76708;SDS011;74360;44.410;0.216;2024-02-15T00:40:43;8.47;;;2.43;;
76708;SDS011;74360;44.410;0.216;2024-02-15T00:46:16;5.57;;;2.27;;
76708;SDS011;74360;44.410;0.216;2024-02-15T00:51:49;7.70;;;2.60;;
76708;SDS011;74360;44.410;0.216;2024-02-15T00:57:22;6.53;;;2.40;;
76708;SDS011;74360;44.410;0.216;2024-02-15T01:02:55;5.80;;;2.33;;
76708;SDS011;74360;44.410;0.216;2024-02-15T01:08:28;7.13;;;2.30;;
76708;SDS011;74360;44.410;0.216;2024-02-15T01:14:00;6.93;;;2.20;;
76708;SDS011;74360;44.410;0.216;2024-02-15T01:19:32;5.97;;;2.20;;
76708;SDS011;74360;44.410;0.216;2024-02-15T01:30:39;7.83;;;2.37;;
76708;SDS011;74360;44.410;0.216;2024-02-15T01:36:13;7.87;;;2.40;;
76708;SDS011;74360;44.410;0.216;2024-02-15T01:41:47;8.10;;;2.20;;
76708;SDS011;74360;44.410;0.216;2024-02-15T01:47:17;6.73;;;2.37;;
76708;SDS011;74360;44.410;0.216;2024-02-15T01:52:48;10.10;;;2.87;;
76708;SDS011;74360;44.410;0.216;2024-02-15T01:58:20;9.13;;;2.87;;
76708;SDS011;74360;44.410;0.216;2024-02-15T02:03:52;7.33;;;2.80;;
76708;SDS011;74360;44.410;0.216;2024-02-15T02:09:24;8.27;;;2.50;;
76708;SDS011;74360;44.410;0.216;2024-02-15T02:14:55;7.13;;;2.43;;
76708;SDS011;74360;44.410;0.216;2024-02-15T02:20:28;7.10;;;2.20;;
76708;SDS011;74360;44.410;0.216;2024-02-15T02:26:02;10.43;;;2.77;;
76708;SDS011;74360;44.410;0.216;2024-02-15T02:31:35;7.07;;;2.83;;
76708;SDS011;74360;44.410;0.216;2024-02-15T02:37:08;7.20;;;2.70;;
76708;SDS011;74360;44.410;0.216;2024-02-15T02:42:46;8.77;;;2.90;;
76708;SDS011;74360;44.410;0.216;2024-02-15T02:48:10;6.97;;;2.50;;
76708;SDS011;74360;44.410;0.216;2024-02-15T02:53:42;7.43;;;2.47;;
76708;SDS011;74360;44.410;0.216;2024-02-15T02:59:16;7.27;;;2.83;;
76708;SDS011;74360;44.410;0.216;2024-02-15T03:04:48;5.90;;;2.33;;
76708;SDS011;74360;44.410;0.216;2024-02-15T03:10:20;6.27;;;2.10;;
76708;SDS011;74360;44.410;0.216;2024-02-15T03:15:54;7.03;;;2.40;;
76708;SDS011;74360;44.410;0.216;2024-02-15T03:21:26;7.27;;;3.00;;
76708;SDS011;74360;44.410;0.216;2024-02-15T03:26:57;5.57;;;1.83;;
76708;SDS011;74360;44.410;0.216;2024-02-15T03:32:30;6.03;;;2.20;;
76708;SDS011;74360;44.410;0.216;2024-02-15T03:38:02;6.40;;;2.40;;
76708;SDS011;74360;44.410;0.216;2024-02-15T03:43:35;7.10;;;2.20;;
76708;SDS011;74360;44.410;0.216;2024-02-15T03:49:08;5.60;;;2.27;;
76708;SDS011;74360;44.410;0.216;2024-02-15T03:54:43;6.80;;;2.47;;
76708;SDS011;74360;44.410;0.216;2024-02-15T04:00:15;6.47;;;2.97;;
76708;SDS011;74360;44.410;0.216;2024-02-15T04:05:49;7.40;;;2.50;;
76708;SDS011;74360;44.410;0.216;2024-02-15T04:11:20;9.13;;;1.80;;
76708;SDS011;74360;44.410;0.216;2024-02-15T04:16:52;6.20;;;2.20;;
76708;SDS011;74360;44.410;0.216;2024-02-15T04:22:24;5.33;;;2.13;;
76708;SDS011;74360;44.410;0.216;2024-02-15T04:28:03;6.83;;;2.03;;
76708;SDS011;74360;44.410;0.216;2024-02-15T04:33:31;5.50;;;2.00;;
76708;SDS011;74360;44.410;0.216;2024-02-15T04:39:04;4.73;;;1.80;;
76708;SDS011;74360;44.410;0.216;2024-02-15T04:44:36;5.97;;;1.90;;
76708;SDS011;74360;44.410;0.216;2024-02-15T04:50:09;5.97;;;1.90;;
76708;SDS011;74360;44.410;0.216;2024-02-15T05:01:16;5.60;;;2.00;;
76708;SDS011;74360;44.410;0.216;2024-02-15T05:06:49;4.80;;;1.90;;
76708;SDS011;74360;44.410;0.216;2024-02-15T05:12:22;6.13;;;2.00;;
76708;SDS011;74360;44.410;0.216;2024-02-15T05:23:28;7.17;;;2.60;;
76708;SDS011;74360;44.410;0.216;2024-02-15T05:29:00;6.00;;;2.10;;
76708;SDS011;74360;44.410;0.216;2024-02-15T05:34:32;8.47;;;2.60;;
76708;SDS011;74360;44.410;0.216;2024-02-15T05:45:40;7.07;;;3.00;;
76708;SDS011;74360;44.410;0.216;2024-02-15T05:51:12;10.33;;;3.53;;
76708;SDS011;74360;44.410;0.216;2024-02-15T05:56:43;7.90;;;2.53;;
76708;SDS011;74360;44.410;0.216;2024-02-15T06:02:16;7.97;;;2.57;;
76708;SDS011;74360;44.410;0.216;2024-02-15T06:07:48;8.50;;;2.73;;
76708;SDS011;74360;44.410;0.216;2024-02-15T06:18:55;6.63;;;2.40;;
76708;SDS011;74360;44.410;0.216;2024-02-15T06:24:29;6.17;;;2.40;;
76708;SDS011;74360;44.410;0.216;2024-02-15T06:30:08;5.53;;;2.40;;
76708;SDS011;74360;44.410;0.216;2024-02-15T06:35:40;8.53;;;2.60;;
76708;SDS011;74360;44.410;0.216;2024-02-15T06:41:04;9.67;;;3.30;;
76708;SDS011;74360;44.410;0.216;2024-02-15T06:46:37;7.90;;;3.17;;
76708;SDS011;74360;44.410;0.216;2024-02-15T06:52:10;10.23;;;2.97;;
76708;SDS011;74360;44.410;0.216;2024-02-15T06:57:42;10.33;;;3.77;;
76708;SDS011;74360;44.410;0.216;2024-02-15T07:03:17;7.37;;;3.20;;
76708;SDS011;74360;44.410;0.216;2024-02-15T07:14:20;7.80;;;2.97;;
76708;SDS011;74360;44.410;0.216;2024-02-15T07:19:53;8.40;;;4.20;;
76708;SDS011;74360;44.410;0.216;2024-02-15T07:25:25;8.10;;;4.30;;
76708;SDS011;74360;44.410;0.216;2024-02-15T07:30:59;10.13;;;3.77;;
76708;SDS011;74360;44.410;0.216;2024-02-15T07:36:32;11.03;;;3.63;;
76708;SDS011;74360;44.410;0.216;2024-02-15T07:42:05;8.60;;;3.73;;
76708;SDS011;74360;44.410;0.216;2024-02-15T07:47:39;9.50;;;4.03;;
76708;SDS011;74360;44.410;0.216;2024-02-15T07:53:12;8.67;;;3.80;;
76708;SDS011;74360;44.410;0.216;2024-02-15T07:58:47;8.07;;;3.27;;
76708;SDS011;74360;44.410;0.216;2024-02-15T08:04:18;7.87;;;3.50;;
76708;SDS011;74360;44.410;0.216;2024-02-15T08:09:50;9.67;;;3.50;;
76708;SDS011;74360;44.410;0.216;2024-02-15T08:15:24;6.67;;;3.23;;
76708;SDS011;74360;44.410;0.216;2024-02-15T08:20:57;6.87;;;2.47;;
76708;SDS011;74360;44.410;0.216;2024-02-15T08:32:01;7.43;;;2.73;;
76708;SDS011;74360;44.410;0.216;2024-02-15T08:43:06;8.00;;;3.30;;
76708;SDS011;74360;44.410;0.216;2024-02-15T08:48:38;6.37;;;2.17;;
76708;SDS011;74360;44.410;0.216;2024-02-15T08:54:11;8.67;;;3.73;;
76708;SDS011;74360;44.410;0.216;2024-02-15T08:59:44;8.07;;;3.10;;
76708;SDS011;74360;44.410;0.216;2024-02-15T09:05:17;6.43;;;2.93;;
76708;SDS011;74360;44.410;0.216;2024-02-15T09:10:49;7.03;;;2.63;;
76708;SDS011;74360;44.410;0.216;2024-02-15T09:16:21;8.17;;;2.73;;
76708;SDS011;74360;44.410;0.216;2024-02-15T09:21:56;6.50;;;2.80;;
76708;SDS011;74360;44.410;0.216;2024-02-15T09:27:27;6.87;;;2.23;;
76708;SDS011;74360;44.410;0.216;2024-02-15T09:32:59;6.17;;;2.70;;
76708;SDS011;74360;44.410;0.216;2024-02-15T09:38:32;9.07;;;2.77;;
76708;SDS011;74360;44.410;0.216;2024-02-15T09:49:40;7.90;;;2.13;;
76708;SDS011;74360;44.410;0.216;2024-02-15T09:55:13;4.93;;;1.90;;
76708;SDS011;74360;44.410;0.216;2024-02-15T10:00:47;6.40;;;2.30;;
76708;SDS011;74360;44.410;0.216;2024-02-15T10:06:18;4.40;;;1.63;;
76708;SDS011;74360;44.410;0.216;2024-02-15T10:17:23;6.90;;;2.53;;
76708;SDS011;74360;44.410;0.216;2024-02-15T10:28:29;6.63;;;2.23;;
76708;SDS011;74360;44.410;0.216;2024-02-15T10:34:02;4.27;;;1.60;;
76708;SDS011;74360;44.410;0.216;2024-02-15T10:39:31;6.17;;;2.50;;
76708;SDS011;74360;44.410;0.216;2024-02-15T10:56:13;4.17;;;1.57;;
76708;SDS011;74360;44.410;0.216;2024-02-15T11:07:13;4.80;;;1.90;;
76708;SDS011;74360;44.410;0.216;2024-02-15T11:12:47;4.03;;;1.13;;
76708;SDS011;74360;44.410;0.216;2024-02-15T11:23:52;6.33;;;2.10;;
76708;SDS011;74360;44.410;0.216;2024-02-15T11:46:05;2.40;;;1.03;;
76708;SDS011;74360;44.410;0.216;2024-02-15T11:51:42;2.50;;;1.03;;
76708;SDS011;74360;44.410;0.216;2024-02-15T11:57:13;3.83;;;1.40;;
76708;SDS011;74360;44.410;0.216;2024-02-15T12:08:23;3.67;;;1.47;;
76708;SDS011;74360;44.410;0.216;2024-02-15T12:24:53;3.87;;;1.50;;
76708;SDS011;74360;44.410;0.216;2024-02-15T12:30:32;6.90;;;1.87;;
76708;SDS011;74360;44.410;0.216;2024-02-15T12:36:03;4.63;;;1.47;;
76708;SDS011;74360;44.410;0.216;2024-02-15T12:41:31;5.00;;;1.50;;
76708;SDS011;74360;44.410;0.216;2024-02-15T12:47:06;8.63;;;1.90;;
76708;SDS011;74360;44.410;0.216;2024-02-15T12:52:37;4.80;;;1.77;;
76708;SDS011;74360;44.410;0.216;2024-02-15T13:03:42;5.00;;;2.30;;
76708;SDS011;74360;44.410;0.216;2024-02-15T13:09:14;6.03;;;1.50;;
76708;SDS011;74360;44.410;0.216;2024-02-15T13:14:47;7.43;;;1.93;;
76708;SDS011;74360;44.410;0.216;2024-02-15T13:25:52;7.03;;;2.23;;
76708;SDS011;74360;44.410;0.216;2024-02-15T13:31:25;5.13;;;1.80;;
76708;SDS011;74360;44.410;0.216;2024-02-15T13:36:57;5.20;;;2.00;;
76708;SDS011;74360;44.410;0.216;2024-02-15T13:42:30;5.90;;;1.77;;
76708;SDS011;74360;44.410;0.216;2024-02-15T13:48:01;7.23;;;3.00;;
76708;SDS011;74360;44.410;0.216;2024-02-15T13:59:07;2.67;;;1.13;;
76708;SDS011;74360;44.410;0.216;2024-02-15T14:04:40;2.63;;;0.80;;
76708;SDS011;74360;44.410;0.216;2024-02-15T14:10:13;3.93;;;1.03;;
76708;SDS011;74360;44.410;0.216;2024-02-15T14:15:46;4.60;;;1.60;;
76708;SDS011;74360;44.410;0.216;2024-02-15T14:21:19;5.57;;;1.70;;
76708;SDS011;74360;44.410;0.216;2024-02-15T14:32:30;6.67;;;1.80;;
76708;SDS011;74360;44.410;0.216;2024-02-15T14:37:57;5.03;;;1.53;;
76708;SDS011;74360;44.410;0.216;2024-02-15T14:43:29;5.00;;;1.67;;
76708;SDS011;74360;44.410;0.216;2024-02-15T14:49:02;4.57;;;1.43;;
76708;SDS011;74360;44.410;0.216;2024-02-15T14:54:37;6.17;;;1.83;;
76708;SDS011;74360;44.410;0.216;2024-02-15T15:00:13;8.27;;;1.83;;
76708;SDS011;74360;44.410;0.216;2024-02-15T15:05:48;5.63;;;1.70;;
76708;SDS011;74360;44.410;0.216;2024-02-15T15:11:22;4.63;;;1.43;;
76708;SDS011;74360;44.410;0.216;2024-02-15T15:16:49;6.40;;;1.70;;
76708;SDS011;74360;44.410;0.216;2024-02-15T15:22:20;4.53;;;1.50;;
76708;SDS011;74360;44.410;0.216;2024-02-15T15:27:51;3.93;;;1.50;;
76708;SDS011;74360;44.410;0.216;2024-02-15T15:33:24;6.50;;;1.93;;
76708;SDS011;74360;44.410;0.216;2024-02-15T15:38:56;5.97;;;1.73;;
76708;SDS011;74360;44.410;0.216;2024-02-15T15:44:27;5.77;;;1.40;;
76708;SDS011;74360;44.410;0.216;2024-02-15T15:50:00;5.33;;;1.50;;
76708;SDS011;74360;44.410;0.216;2024-02-15T15:55:34;6.20;;;1.50;;
76708;SDS011;74360;44.410;0.216;2024-02-15T16:01:09;4.13;;;1.60;;
76708;SDS011;74360;44.410;0.216;2024-02-15T16:06:41;4.50;;;1.50;;
76708;SDS011;74360;44.410;0.216;2024-02-15T16:12:14;4.40;;;1.40;;
76708;SDS011;74360;44.410;0.216;2024-02-15T16:17:47;4.40;;;1.60;;
76708;SDS011;74360;44.410;0.216;2024-02-15T16:23:18;4.97;;;1.20;;
76708;SDS011;74360;44.410;0.216;2024-02-15T16:28:50;4.33;;;1.37;;
76708;SDS011;74360;44.410;0.216;2024-02-15T16:34:23;5.10;;;1.60;;
76708;SDS011;74360;44.410;0.216;2024-02-15T16:39:55;6.23;;;1.57;;
76708;SDS011;74360;44.410;0.216;2024-02-15T16:45:28;6.90;;;2.00;;
76708;SDS011;74360;44.410;0.216;2024-02-15T16:51:02;5.10;;;1.43;;
76708;SDS011;74360;44.410;0.216;2024-02-15T16:56:34;4.87;;;1.50;;
76708;SDS011;74360;44.410;0.216;2024-02-15T17:02:07;6.70;;;1.90;;
76708;SDS011;74360;44.410;0.216;2024-02-15T17:07:39;5.40;;;1.80;;
76708;SDS011;74360;44.410;0.216;2024-02-15T17:13:11;5.20;;;1.63;;
76708;SDS011;74360;44.410;0.216;2024-02-15T17:24:15;6.83;;;1.90;;
76708;SDS011;74360;44.410;0.216;2024-02-15T17:29:48;5.67;;;2.07;;
76708;SDS011;74360;44.410;0.216;2024-02-15T17:40:53;5.47;;;1.80;;
76708;SDS011;74360;44.410;0.216;2024-02-15T17:46:25;5.77;;;1.70;;
76708;SDS011;74360;44.410;0.216;2024-02-15T17:51:57;3.87;;;1.47;;
76708;SDS011;74360;44.410;0.216;2024-02-15T17:57:28;5.40;;;2.13;;
76708;SDS011;74360;44.410;0.216;2024-02-15T18:03:01;5.23;;;1.70;;
76708;SDS011;74360;44.410;0.216;2024-02-15T18:08:34;4.37;;;1.70;;
76708;SDS011;74360;44.410;0.216;2024-02-15T18:14:07;5.50;;;1.40;;
76708;SDS011;74360;44.410;0.216;2024-02-15T18:19:40;6.73;;;1.83;;
76708;SDS011;74360;44.410;0.216;2024-02-15T18:25:12;7.40;;;2.50;;
76708;SDS011;74360;44.410;0.216;2024-02-15T18:30:47;5.47;;;2.10;;
76708;SDS011;74360;44.410;0.216;2024-02-15T18:36:19;6.40;;;1.93;;
76708;SDS011;74360;44.410;0.216;2024-02-15T18:41:50;7.60;;;2.27;;
76708;SDS011;74360;44.410;0.216;2024-02-15T18:52:56;7.80;;;2.10;;
76708;SDS011;74360;44.410;0.216;2024-02-15T18:58:29;5.87;;;2.30;;
76708;SDS011;74360;44.410;0.216;2024-02-15T19:04:01;7.97;;;2.10;;
76708;SDS011;74360;44.410;0.216;2024-02-15T19:09:33;4.83;;;2.23;;
76708;SDS011;74360;44.410;0.216;2024-02-15T19:15:07;8.27;;;2.97;;
76708;SDS011;74360;44.410;0.216;2024-02-15T19:26:10;9.00;;;3.17;;
76708;SDS011;74360;44.410;0.216;2024-02-15T19:31:42;10.30;;;3.03;;
76708;SDS011;74360;44.410;0.216;2024-02-15T19:37:15;11.13;;;3.40;;
76708;SDS011;74360;44.410;0.216;2024-02-15T19:42:47;10.63;;;2.93;;
76708;SDS011;74360;44.410;0.216;2024-02-15T19:48:20;10.70;;;3.00;;
76708;SDS011;74360;44.410;0.216;2024-02-15T20:04:58;8.80;;;2.70;;
76708;SDS011;74360;44.410;0.216;2024-02-15T20:10:29;12.63;;;3.43;;
76708;SDS011;74360;44.410;0.216;2024-02-15T20:16:05;11.30;;;3.30;;
76708;SDS011;74360;44.410;0.216;2024-02-15T20:21:37;9.60;;;2.87;;
76708;SDS011;74360;44.410;0.216;2024-02-15T20:32:42;6.27;;;2.20;;
76708;SDS011;74360;44.410;0.216;2024-02-15T20:38:16;10.77;;;3.57;;
76708;SDS011;74360;44.410;0.216;2024-02-15T20:43:47;12.50;;;3.63;;
76708;SDS011;74360;44.410;0.216;2024-02-15T20:49:19;11.60;;;3.53;;
76708;SDS011;74360;44.410;0.216;2024-02-15T20:54:51;13.23;;;3.30;;
76708;SDS011;74360;44.410;0.216;2024-02-15T21:00:24;14.17;;;4.10;;
76708;SDS011;74360;44.410;0.216;2024-02-15T21:05:56;13.70;;;3.47;;
76708;SDS011;74360;44.410;0.216;2024-02-15T21:17:02;14.07;;;3.60;;
76708;SDS011;74360;44.410;0.216;2024-02-15T21:22:35;9.60;;;3.43;;
76708;SDS011;74360;44.410;0.216;2024-02-15T21:28:08;13.57;;;3.73;;
76708;SDS011;74360;44.410;0.216;2024-02-15T21:39:13;11.50;;;3.77;;
76708;SDS011;74360;44.410;0.216;2024-02-15T21:44:45;13.97;;;3.83;;
76708;SDS011;74360;44.410;0.216;2024-02-15T21:50:17;14.83;;;3.67;;
76708;SDS011;74360;44.410;0.216;2024-02-15T21:55:51;9.27;;;2.90;;
76708;SDS011;74360;44.410;0.216;2024-02-15T22:01:24;10.73;;;3.53;;
76708;SDS011;74360;44.410;0.216;2024-02-15T22:12:31;11.43;;;3.10;;
76708;SDS011;74360;44.410;0.216;2024-02-15T22:18:03;15.73;;;4.07;;
76708;SDS011;74360;44.410;0.216;2024-02-15T22:23:36;11.67;;;4.10;;
76708;SDS011;74360;44.410;0.216;2024-02-15T22:29:09;17.07;;;4.50;;
76708;SDS011;74360;44.410;0.216;2024-02-15T22:34:41;16.07;;;4.50;;
76708;SDS011;74360;44.410;0.216;2024-02-15T22:40:15;13.87;;;4.13;;
76708;SDS011;74360;44.410;0.216;2024-02-15T22:45:48;15.53;;;4.33;;
76708;SDS011;74360;44.410;0.216;2024-02-15T22:51:19;13.63;;;4.40;;
76708;SDS011;74360;44.410;0.216;2024-02-15T22:56:52;11.87;;;4.07;;
76708;SDS011;74360;44.410;0.216;2024-02-15T23:02:24;14.80;;;4.20;;
76708;SDS011;74360;44.410;0.216;2024-02-15T23:07:57;9.73;;;3.83;;
76708;SDS011;74360;44.410;0.216;2024-02-15T23:13:30;14.87;;;3.80;;
76708;SDS011;74360;44.410;0.216;2024-02-15T23:19:02;15.23;;;3.73;;
76708;SDS011;74360;44.410;0.216;2024-02-15T23:24:34;15.17;;;4.40;;
76708;SDS011;74360;44.410;0.216;2024-02-15T23:30:08;14.27;;;4.73;;
76708;SDS011;74360;44.410;0.216;2024-02-15T23:35:46;14.60;;;4.37;;
76708;SDS011;74360;44.410;0.216;2024-02-15T23:41:12;13.87;;;4.40;;
76708;SDS011;74360;44.410;0.216;2024-02-15T23:46:44;10.67;;;4.40;;
76708;SDS011;74360;44.410;0.216;2024-02-15T23:52:18;13.77;;;4.43;;
76708;SDS011;74360;44.410;0.216;2024-02-15T23:57:51;12.23;;;4.63;;
